sensor_id;sensor_type;location;lat;lon;timestamp;temperature;humidity
15556;DHT22;7879;48.660;9.116;2022-09-03T00:04:30;15.60;99.90
15556;DHT22;7879;48.660;9.116;2022-09-03T00:07:07;15.60;99.90
15556;DHT22;7879;48.660;9.116;2022-09-03T00:09:45;15.50;99.90
15556;DHT22;7879;48.660;9.116;2022-09-03T00:12:28;15.50;99.90
15556;DHT22;7879;48.660;9.116;2022-09-03T00:15:18;15.50;99.90
15556;DHT22;7879;48.660;9.116;2022-09-03T00:18:00;15.50;99.90
15556;DHT22;7879;48.660;9.116;2022-09-03T00:23:07;15.40;99.90
15556;DHT22;7879;48.660;9.116;2022-09-03T00:26:32;15.40;99.90
15556;DHT22;7879;48.660;9.116;2022-09-03T00:29:19;15.40;99.90
15556;DHT22;7879;48.660;9.116;2022-09-03T00:31:50;15.30;99.90
15556;DHT22;7879;48.660;9.116;2022-09-03T00:34:35;15.30;99.90
15556;DHT22;7879;48.660;9.116;2022-09-03T00:37:05;15.30;99.90
15556;DHT22;7879;48.660;9.116;2022-09-03T00:39:39;15.40;99.90
15556;DHT22;7879;48.660;9.116;2022-09-03T00:53:19;15.40;99.90
15556;DHT22;7879;48.660;9.116;2022-09-03T01:01:40;15.40;99.90
15556;DHT22;7879;48.660;9.116;2022-09-03T01:16:15;15.20;99.90
15556;DHT22;7879;48.660;9.116;2022-09-03T01:29:44;15.10;99.90
15556;DHT22;7879;48.660;9.116;2022-09-03T01:38:05;15.10;99.90
15556;DHT22;7879;48.660;9.116;2022-09-03T01:40:45;15.10;99.90
15556;DHT22;7879;48.660;9.116;2022-09-03T01:46:36;15.10;99.90
15556;DHT22;7879;48.660;9.116;2022-09-03T01:49:22;15.00;99.90
15556;DHT22;7879;48.660;9.116;2022-09-03T01:52:28;15.00;99.90
15556;DHT22;7879;48.660;9.116;2022-09-03T01:54:52;15.00;99.90
15556;DHT22;7879;48.660;9.116;2022-09-03T01:57:42;15.00;99.90
15556;DHT22;7879;48.660;9.116;2022-09-03T02:00:17;15.00;99.90
15556;DHT22;7879;48.660;9.116;2022-09-03T02:02:48;15.00;99.90
15556;DHT22;7879;48.660;9.116;2022-09-03T02:05:22;15.00;99.90
15556;DHT22;7879;48.660;9.116;2022-09-03T02:10:48;15.00;99.90
15556;DHT22;7879;48.660;9.116;2022-09-03T02:13:22;15.00;99.90
15556;DHT22;7879;48.660;9.116;2022-09-03T02:15:52;15.00;99.90
15556;DHT22;7879;48.660;9.116;2022-09-03T02:18:34;14.90;99.90
15556;DHT22;7879;48.660;9.116;2022-09-03T02:21:02;14.90;99.90
15556;DHT22;7879;48.660;9.116;2022-09-03T02:23:30;14.90;99.90
15556;DHT22;7879;48.660;9.116;2022-09-03T02:26:02;14.90;99.90
15556;DHT22;7879;48.660;9.116;2022-09-03T02:28:30;14.90;99.90
15556;DHT22;7879;48.660;9.116;2022-09-03T02:30:57;14.90;99.90
15556;DHT22;7879;48.660;9.116;2022-09-03T02:33:25;14.90;99.90
15556;DHT22;7879;48.660;9.116;2022-09-03T02:35:52;14.90;99.90
15556;DHT22;7879;48.660;9.116;2022-09-03T02:38:22;14.90;99.90
15556;DHT22;7879;48.660;9.116;2022-09-03T02:40:51;14.80;99.90
15556;DHT22;7879;48.660;9.116;2022-09-03T02:43:48;14.80;99.90
15556;DHT22;7879;48.660;9.116;2022-09-03T02:46:23;14.80;99.90
15556;DHT22;7879;48.660;9.116;2022-09-03T02:48:53;14.70;99.90
15556;DHT22;7879;48.660;9.116;2022-09-03T02:51:20;14.70;99.90
15556;DHT22;7879;48.660;9.116;2022-09-03T02:53:47;14.60;99.90
15556;DHT22;7879;48.660;9.116;2022-09-03T02:56:16;14.60;99.90
15556;DHT22;7879;48.660;9.116;2022-09-03T02:58:43;14.50;99.90
15556;DHT22;7879;48.660;9.116;2022-09-03T03:01:10;14.50;99.90
15556;DHT22;7879;48.660;9.116;2022-09-03T03:03:45;14.50;99.90
15556;DHT22;7879;48.660;9.116;2022-09-03T03:06:12;14.60;99.90
15556;DHT22;7879;48.660;9.116;2022-09-03T03:08:39;14.60;99.90
15556;DHT22;7879;48.660;9.116;2022-09-03T03:11:06;14.60;99.90
15556;DHT22;7879;48.660;9.116;2022-09-03T03:13:33;14.50;99.90
15556;DHT22;7879;48.660;9.116;2022-09-03T03:16:02;14.50;99.90
15556;DHT22;7879;48.660;9.116;2022-09-03T03:18:31;14.40;99.90
15556;DHT22;7879;48.660;9.116;2022-09-03T03:21:09;14.40;99.90
15556;DHT22;7879;48.660;9.116;2022-09-03T03:23:38;14.30;99.90
15556;DHT22;7879;48.660;9.116;2022-09-03T03:26:07;14.30;99.90
15556;DHT22;7879;48.660;9.116;2022-09-03T03:28:35;14.30;99.90
15556;DHT22;7879;48.660;9.116;2022-09-03T03:31:13;14.20;99.90
15556;DHT22;7879;48.660;9.116;2022-09-03T03:33:40;14.20;99.90
15556;DHT22;7879;48.660;9.116;2022-09-03T03:36:09;14.10;99.90
15556;DHT22;7879;48.660;9.116;2022-09-03T03:38:37;14.10;99.90
15556;DHT22;7879;48.660;9.116;2022-09-03T03:43:34;14.10;99.90
15556;DHT22;7879;48.660;9.116;2022-09-03T03:46:00;14.10;99.90
15556;DHT22;7879;48.660;9.116;2022-09-03T03:48:27;14.10;99.90
15556;DHT22;7879;48.660;9.116;2022-09-03T03:50:54;14.10;99.90
15556;DHT22;7879;48.660;9.116;2022-09-03T03:53:21;14.10;99.90
15556;DHT22;7879;48.660;9.116;2022-09-03T03:55:59;14.20;99.90
15556;DHT22;7879;48.660;9.116;2022-09-03T03:58:28;14.20;99.90
15556;DHT22;7879;48.660;9.116;2022-09-03T04:01:02;14.10;99.90
15556;DHT22;7879;48.660;9.116;2022-09-03T04:03:29;14.20;99.90
15556;DHT22;7879;48.660;9.116;2022-09-03T04:05:57;14.10;99.90
15556;DHT22;7879;48.660;9.116;2022-09-03T04:08:26;14.10;99.90
15556;DHT22;7879;48.660;9.116;2022-09-03T04:10:53;14.10;99.90
15556;DHT22;7879;48.660;9.116;2022-09-03T04:13:28;14.10;99.90
15556;DHT22;7879;48.660;9.116;2022-09-03T04:16:03;14.10;99.90
15556;DHT22;7879;48.660;9.116;2022-09-03T04:18:30;14.10;99.90
15556;DHT22;7879;48.660;9.116;2022-09-03T04:21:06;14.10;99.90
15556;DHT22;7879;48.660;9.116;2022-09-03T04:23:34;14.20;99.90
15556;DHT22;7879;48.660;9.116;2022-09-03T04:26:02;14.20;99.90
15556;DHT22;7879;48.660;9.116;2022-09-03T04:28:31;14.10;99.90
15556;DHT22;7879;48.660;9.116;2022-09-03T04:31:02;14.20;99.90
15556;DHT22;7879;48.660;9.116;2022-09-03T04:33:30;14.10;99.90
15556;DHT22;7879;48.660;9.116;2022-09-03T04:36:08;14.10;99.90
15556;DHT22;7879;48.660;9.116;2022-09-03T04:38:38;14.10;99.90
15556;DHT22;7879;48.660;9.116;2022-09-03T04:41:06;14.10;99.90
15556;DHT22;7879;48.660;9.116;2022-09-03T04:43:33;14.10;99.90
15556;DHT22;7879;48.660;9.116;2022-09-03T04:46:02;14.10;99.90
15556;DHT22;7879;48.660;9.116;2022-09-03T04:48:30;14.10;99.90
15556;DHT22;7879;48.660;9.116;2022-09-03T04:53:37;14.10;99.90
15556;DHT22;7879;48.660;9.116;2022-09-03T04:56:12;14.10;99.90
15556;DHT22;7879;48.660;9.116;2022-09-03T04:58:40;14.10;99.90
15556;DHT22;7879;48.660;9.116;2022-09-03T05:01:11;14.10;99.90
15556;DHT22;7879;48.660;9.116;2022-09-03T05:03:38;14.10;99.90
15556;DHT22;7879;48.660;9.116;2022-09-03T05:06:05;14.10;99.90
15556;DHT22;7879;48.660;9.116;2022-09-03T05:08:33;14.10;99.90
15556;DHT22;7879;48.660;9.116;2022-09-03T05:11:03;14.10;99.90
15556;DHT22;7879;48.660;9.116;2022-09-03T05:13:32;14.10;99.90
15556;DHT22;7879;48.660;9.116;2022-09-03T05:16:01;14.20;99.90
15556;DHT22;7879;48.660;9.116;2022-09-03T05:18:28;14.20;99.90
15556;DHT22;7879;48.660;9.116;2022-09-03T05:20:59;14.10;99.90
15556;DHT22;7879;48.660;9.116;2022-09-03T05:23:27;14.20;99.90
15556;DHT22;7879;48.660;9.116;2022-09-03T05:26:01;14.20;99.90
15556;DHT22;7879;48.660;9.116;2022-09-03T05:28:29;14.20;99.90
15556;DHT22;7879;48.660;9.116;2022-09-03T05:31:00;14.20;99.90
15556;DHT22;7879;48.660;9.116;2022-09-03T05:33:27;14.20;99.90
15556;DHT22;7879;48.660;9.116;2022-09-03T05:36:05;14.20;99.90
15556;DHT22;7879;48.660;9.116;2022-09-03T05:38:33;14.20;99.90
15556;DHT22;7879;48.660;9.116;2022-09-03T05:41:00;14.30;99.90
15556;DHT22;7879;48.660;9.116;2022-09-03T05:43:29;14.30;99.90
15556;DHT22;7879;48.660;9.116;2022-09-03T05:45:57;14.30;99.90
15556;DHT22;7879;48.660;9.116;2022-09-03T05:48:28;14.30;99.90
15556;DHT22;7879;48.660;9.116;2022-09-03T05:51:03;14.30;99.90
15556;DHT22;7879;48.660;9.116;2022-09-03T05:53:33;14.30;99.90
15556;DHT22;7879;48.660;9.116;2022-09-03T05:56:02;14.30;99.90
15556;DHT22;7879;48.660;9.116;2022-09-03T05:58:36;14.40;99.90
15556;DHT22;7879;48.660;9.116;2022-09-03T06:06:21;14.40;99.90
15556;DHT22;7879;48.660;9.116;2022-09-03T06:08:55;14.40;99.90
15556;DHT22;7879;48.660;9.116;2022-09-03T06:11:24;14.50;99.90
15556;DHT22;7879;48.660;9.116;2022-09-03T06:13:56;14.50;99.90
15556;DHT22;7879;48.660;9.116;2022-09-03T06:16:23;14.50;99.90
15556;DHT22;7879;48.660;9.116;2022-09-03T06:18:58;14.60;99.90
15556;DHT22;7879;48.660;9.116;2022-09-03T06:21:26;14.60;99.90
15556;DHT22;7879;48.660;9.116;2022-09-03T06:23:56;14.70;99.90
15556;DHT22;7879;48.660;9.116;2022-09-03T06:26:26;14.60;99.90
15556;DHT22;7879;48.660;9.116;2022-09-03T06:28:56;14.70;99.90
15556;DHT22;7879;48.660;9.116;2022-09-03T06:31:24;14.60;99.90
15556;DHT22;7879;48.660;9.116;2022-09-03T06:33:52;14.60;99.90
15556;DHT22;7879;48.660;9.116;2022-09-03T06:36:20;14.70;99.90
15556;DHT22;7879;48.660;9.116;2022-09-03T06:38:51;14.70;99.90
15556;DHT22;7879;48.660;9.116;2022-09-03T06:41:22;14.70;99.90
15556;DHT22;7879;48.660;9.116;2022-09-03T06:43:56;14.70;99.90
15556;DHT22;7879;48.660;9.116;2022-09-03T06:46:31;14.70;99.90
15556;DHT22;7879;48.660;9.116;2022-09-03T06:48:58;14.80;99.90
15556;DHT22;7879;48.660;9.116;2022-09-03T06:51:27;14.80;99.90
15556;DHT22;7879;48.660;9.116;2022-09-03T06:54:08;14.90;99.90
15556;DHT22;7879;48.660;9.116;2022-09-03T06:56:38;14.90;99.90
15556;DHT22;7879;48.660;9.116;2022-09-03T06:59:11;15.00;99.90
15556;DHT22;7879;48.660;9.116;2022-09-03T07:01:39;15.00;99.90
15556;DHT22;7879;48.660;9.116;2022-09-03T07:04:11;15.10;99.90
15556;DHT22;7879;48.660;9.116;2022-09-03T07:06:39;15.10;99.90
15556;DHT22;7879;48.660;9.116;2022-09-03T07:09:09;15.20;99.90
15556;DHT22;7879;48.660;9.116;2022-09-03T07:11:37;15.20;99.90
15556;DHT22;7879;48.660;9.116;2022-09-03T07:14:11;15.30;99.90
15556;DHT22;7879;48.660;9.116;2022-09-03T07:16:38;15.30;99.90
15556;DHT22;7879;48.660;9.116;2022-09-03T07:19:07;15.40;99.90
15556;DHT22;7879;48.660;9.116;2022-09-03T07:21:36;15.50;99.90
15556;DHT22;7879;48.660;9.116;2022-09-03T07:24:04;15.50;99.90
15556;DHT22;7879;48.660;9.116;2022-09-03T07:26:33;15.60;99.90
15556;DHT22;7879;48.660;9.116;2022-09-03T07:29:00;15.60;99.90
15556;DHT22;7879;48.660;9.116;2022-09-03T07:34:01;15.80;99.90
15556;DHT22;7879;48.660;9.116;2022-09-03T07:36:38;15.80;99.90
15556;DHT22;7879;48.660;9.116;2022-09-03T07:39:07;15.90;99.90
15556;DHT22;7879;48.660;9.116;2022-09-03T07:41:34;16.00;99.90
15556;DHT22;7879;48.660;9.116;2022-09-03T07:44:00;16.10;99.90
15556;DHT22;7879;48.660;9.116;2022-09-03T07:46:35;16.10;99.90
15556;DHT22;7879;48.660;9.116;2022-09-03T07:49:03;16.10;99.90
15556;DHT22;7879;48.660;9.116;2022-09-03T07:51:34;16.20;99.90
15556;DHT22;7879;48.660;9.116;2022-09-03T07:54:04;16.30;99.90
15556;DHT22;7879;48.660;9.116;2022-09-03T07:56:33;16.40;99.90
15556;DHT22;7879;48.660;9.116;2022-09-03T07:59:02;16.40;99.90
15556;DHT22;7879;48.660;9.116;2022-09-03T08:01:30;16.50;99.90
15556;DHT22;7879;48.660;9.116;2022-09-03T08:03:59;16.60;99.90
15556;DHT22;7879;48.660;9.116;2022-09-03T08:06:28;16.60;99.90
15556;DHT22;7879;48.660;9.116;2022-09-03T08:09:03;16.70;99.90
15556;DHT22;7879;48.660;9.116;2022-09-03T08:11:35;16.80;99.90
15556;DHT22;7879;48.660;9.116;2022-09-03T08:14:04;17.00;99.90
15556;DHT22;7879;48.660;9.116;2022-09-03T08:16:37;17.20;99.90
15556;DHT22;7879;48.660;9.116;2022-09-03T08:19:05;17.30;99.90
15556;DHT22;7879;48.660;9.116;2022-09-03T08:21:33;17.30;99.90
15556;DHT22;7879;48.660;9.116;2022-09-03T08:23:59;17.50;99.90
15556;DHT22;7879;48.660;9.116;2022-09-03T08:26:31;17.60;99.90
15556;DHT22;7879;48.660;9.116;2022-09-03T08:28:59;17.70;99.90
15556;DHT22;7879;48.660;9.116;2022-09-03T08:31:27;17.80;99.90
15556;DHT22;7879;48.660;9.116;2022-09-03T08:33:56;17.90;99.90
15556;DHT22;7879;48.660;9.116;2022-09-03T08:36:28;18.00;99.90
15556;DHT22;7879;48.660;9.116;2022-09-03T08:38:57;18.10;99.90
15556;DHT22;7879;48.660;9.116;2022-09-03T08:44:45;18.20;99.90
15556;DHT22;7879;48.660;9.116;2022-09-03T08:53:20;18.40;99.90
15556;DHT22;7879;48.660;9.116;2022-09-03T08:58:18;18.50;99.90
15556;DHT22;7879;48.660;9.116;2022-09-03T09:12:25;18.60;99.90
15556;DHT22;7879;48.660;9.116;2022-09-03T09:15:07;18.70;99.90
15556;DHT22;7879;48.660;9.116;2022-09-03T09:23:12;18.80;99.90
15556;DHT22;7879;48.660;9.116;2022-09-03T09:25:47;19.20;99.90
15556;DHT22;7879;48.660;9.116;2022-09-03T09:28:21;19.50;99.90
15556;DHT22;7879;48.660;9.116;2022-09-03T09:30:51;19.90;99.90
15556;DHT22;7879;48.660;9.116;2022-09-03T09:33:19;20.20;99.90
15556;DHT22;7879;48.660;9.116;2022-09-03T09:35:47;20.60;99.90
15556;DHT22;7879;48.660;9.116;2022-09-03T09:38:14;21.10;99.90
15556;DHT22;7879;48.660;9.116;2022-09-03T09:40:43;21.20;99.90
15556;DHT22;7879;48.660;9.116;2022-09-03T09:43:16;21.10;99.90
15556;DHT22;7879;48.660;9.116;2022-09-03T09:45:47;20.90;99.90
15556;DHT22;7879;48.660;9.116;2022-09-03T09:48:25;20.90;99.90
15556;DHT22;7879;48.660;9.116;2022-09-03T09:51:09;20.80;99.90
15556;DHT22;7879;48.660;9.116;2022-09-03T09:53:37;20.70;99.90
15556;DHT22;7879;48.660;9.116;2022-09-03T09:56:05;20.60;99.90
15556;DHT22;7879;48.660;9.116;2022-09-03T09:58:33;20.60;99.90
15556;DHT22;7879;48.660;9.116;2022-09-03T10:01:11;20.60;99.90
15556;DHT22;7879;48.660;9.116;2022-09-03T10:03:54;20.60;99.90
15556;DHT22;7879;48.660;9.116;2022-09-03T10:06:27;20.50;99.90
15556;DHT22;7879;48.660;9.116;2022-09-03T10:09:17;20.50;99.90
15556;DHT22;7879;48.660;9.116;2022-09-03T10:14:46;20.40;99.90
15556;DHT22;7879;48.660;9.116;2022-09-03T10:23:02;20.50;99.90
15556;DHT22;7879;48.660;9.116;2022-09-03T10:25:47;20.50;99.90
15556;DHT22;7879;48.660;9.116;2022-09-03T10:28:23;20.60;99.90
15556;DHT22;7879;48.660;9.116;2022-09-03T10:30:55;20.80;99.90
15556;DHT22;7879;48.660;9.116;2022-09-03T10:33:37;21.50;99.90
15556;DHT22;7879;48.660;9.116;2022-09-03T10:36:20;21.80;99.90
15556;DHT22;7879;48.660;9.116;2022-09-03T10:38:52;21.80;99.90
15556;DHT22;7879;48.660;9.116;2022-09-03T10:49:49;21.60;99.90
15556;DHT22;7879;48.660;9.116;2022-09-03T10:52:27;21.50;99.90
15556;DHT22;7879;48.660;9.116;2022-09-03T10:57:39;21.40;99.90
15556;DHT22;7879;48.660;9.116;2022-09-03T11:00:12;21.40;99.90
15556;DHT22;7879;48.660;9.116;2022-09-03T11:05:52;21.30;99.90
15556;DHT22;7879;48.660;9.116;2022-09-03T11:08:33;21.30;99.90
15556;DHT22;7879;48.660;9.116;2022-09-03T11:13:47;21.30;99.90
15556;DHT22;7879;48.660;9.116;2022-09-03T11:16:27;21.30;99.90
15556;DHT22;7879;48.660;9.116;2022-09-03T11:19:06;21.20;99.90
15556;DHT22;7879;48.660;9.116;2022-09-03T11:21:37;21.20;99.90
15556;DHT22;7879;48.660;9.116;2022-09-03T11:24:21;21.20;99.90
15556;DHT22;7879;48.660;9.116;2022-09-03T11:32:48;21.10;99.90
15556;DHT22;7879;48.660;9.116;2022-09-03T11:35:47;21.10;99.90
15556;DHT22;7879;48.660;9.116;2022-09-03T11:38:21;20.90;99.90
15556;DHT22;7879;48.660;9.116;2022-09-03T11:40:58;20.90;99.90
15556;DHT22;7879;48.660;9.116;2022-09-03T11:43:30;20.90;99.90
15556;DHT22;7879;48.660;9.116;2022-09-03T11:48:52;20.80;99.90
15556;DHT22;7879;48.660;9.116;2022-09-03T11:53:56;20.80;99.90
15556;DHT22;7879;48.660;9.116;2022-09-03T11:56:24;20.80;99.90
15556;DHT22;7879;48.660;9.116;2022-09-03T12:04:14;20.60;99.90
15556;DHT22;7879;48.660;9.116;2022-09-03T12:07:13;20.30;99.90
15556;DHT22;7879;48.660;9.116;2022-09-03T12:20:40;18.20;99.90
15556;DHT22;7879;48.660;9.116;2022-09-03T12:23:10;18.10;99.90
15556;DHT22;7879;48.660;9.116;2022-09-03T12:25:43;18.00;99.90
15556;DHT22;7879;48.660;9.116;2022-09-03T12:28:16;17.90;99.90
15556;DHT22;7879;48.660;9.116;2022-09-03T12:30:44;18.00;99.90
15556;DHT22;7879;48.660;9.116;2022-09-03T12:33:12;18.00;99.90
15556;DHT22;7879;48.660;9.116;2022-09-03T12:35:42;18.10;99.90
15556;DHT22;7879;48.660;9.116;2022-09-03T12:38:27;18.20;99.90
15556;DHT22;7879;48.660;9.116;2022-09-03T12:40:55;18.20;99.90
15556;DHT22;7879;48.660;9.116;2022-09-03T12:43:50;18.20;99.90
15556;DHT22;7879;48.660;9.116;2022-09-03T12:46:18;18.10;99.90
15556;DHT22;7879;48.660;9.116;2022-09-03T12:49:04;18.20;99.90
15556;DHT22;7879;48.660;9.116;2022-09-03T12:52:01;18.10;99.90
15556;DHT22;7879;48.660;9.116;2022-09-03T12:54:33;18.00;99.90
15556;DHT22;7879;48.660;9.116;2022-09-03T12:57:00;18.00;99.90
15556;DHT22;7879;48.660;9.116;2022-09-03T12:59:30;18.10;99.90
15556;DHT22;7879;48.660;9.116;2022-09-03T13:02:03;18.00;99.90
15556;DHT22;7879;48.660;9.116;2022-09-03T13:04:34;17.90;99.90
15556;DHT22;7879;48.660;9.116;2022-09-03T13:07:10;18.00;99.90
15556;DHT22;7879;48.660;9.116;2022-09-03T13:09:40;17.90;99.90
15556;DHT22;7879;48.660;9.116;2022-09-03T13:12:20;17.90;99.90
15556;DHT22;7879;48.660;9.116;2022-09-03T13:14:49;18.00;99.90
15556;DHT22;7879;48.660;9.116;2022-09-03T13:30:56;17.90;99.90
15556;DHT22;7879;48.660;9.116;2022-09-03T13:33:40;18.10;99.90
15556;DHT22;7879;48.660;9.116;2022-09-03T13:36:15;18.20;99.90
15556;DHT22;7879;48.660;9.116;2022-09-03T13:38:50;18.30;99.90
15556;DHT22;7879;48.660;9.116;2022-09-03T13:41:33;18.30;99.90
15556;DHT22;7879;48.660;9.116;2022-09-03T13:47:28;18.40;99.90
15556;DHT22;7879;48.660;9.116;2022-09-03T13:50:19;18.40;99.90
15556;DHT22;7879;48.660;9.116;2022-09-03T13:53:14;18.30;99.90
15556;DHT22;7879;48.660;9.116;2022-09-03T13:55:49;18.40;99.90
15556;DHT22;7879;48.660;9.116;2022-09-03T13:58:37;18.30;99.90
15556;DHT22;7879;48.660;9.116;2022-09-03T14:01:22;18.30;99.90
15556;DHT22;7879;48.660;9.116;2022-09-03T14:03:59;18.30;99.90
15556;DHT22;7879;48.660;9.116;2022-09-03T14:06:42;18.50;99.90
15556;DHT22;7879;48.660;9.116;2022-09-03T14:12:01;18.60;99.90
15556;DHT22;7879;48.660;9.116;2022-09-03T14:14:55;18.60;99.90
15556;DHT22;7879;48.660;9.116;2022-09-03T14:20:09;18.70;99.90
15556;DHT22;7879;48.660;9.116;2022-09-03T14:22:48;18.80;99.90
15556;DHT22;7879;48.660;9.116;2022-09-03T14:25:20;18.80;99.90
15556;DHT22;7879;48.660;9.116;2022-09-03T14:27:47;18.80;99.90
15556;DHT22;7879;48.660;9.116;2022-09-03T14:56:51;18.80;99.90
15556;DHT22;7879;48.660;9.116;2022-09-03T15:07:58;18.90;99.90
15556;DHT22;7879;48.660;9.116;2022-09-03T15:10:54;18.90;99.90
15556;DHT22;7879;48.660;9.116;2022-09-03T15:13:36;18.90;99.90
15556;DHT22;7879;48.660;9.116;2022-09-03T15:33:38;19.20;99.90
15556;DHT22;7879;48.660;9.116;2022-09-03T15:36:18;19.30;99.90
15556;DHT22;7879;48.660;9.116;2022-09-03T15:38:51;19.30;99.90
15556;DHT22;7879;48.660;9.116;2022-09-03T15:44:02;19.20;99.90
15556;DHT22;7879;48.660;9.116;2022-09-03T15:46:58;19.20;99.90
15556;DHT22;7879;48.660;9.116;2022-09-03T15:49:54;19.20;99.90
15556;DHT22;7879;48.660;9.116;2022-09-03T15:52:31;19.10;99.90
15556;DHT22;7879;48.660;9.116;2022-09-03T15:57:57;19.20;99.90
15556;DHT22;7879;48.660;9.116;2022-09-03T16:03:46;19.20;99.90
15556;DHT22;7879;48.660;9.116;2022-09-03T16:06:26;19.20;99.90
15556;DHT22;7879;48.660;9.116;2022-09-03T16:08:58;19.20;99.90
15556;DHT22;7879;48.660;9.116;2022-09-03T16:11:42;19.20;99.90
15556;DHT22;7879;48.660;9.116;2022-09-03T16:14:29;19.20;99.90
15556;DHT22;7879;48.660;9.116;2022-09-03T16:22:29;19.10;99.90
15556;DHT22;7879;48.660;9.116;2022-09-03T16:27:32;19.10;99.90
15556;DHT22;7879;48.660;9.116;2022-09-03T16:30:23;19.10;99.90
15556;DHT22;7879;48.660;9.116;2022-09-03T16:38:26;19.00;99.90
15556;DHT22;7879;48.660;9.116;2022-09-03T16:44:06;19.00;99.90
15556;DHT22;7879;48.660;9.116;2022-09-03T16:51:55;19.00;99.90
15556;DHT22;7879;48.660;9.116;2022-09-03T16:54:42;19.00;99.90
15556;DHT22;7879;48.660;9.116;2022-09-03T17:00:11;19.00;99.90
15556;DHT22;7879;48.660;9.116;2022-09-03T17:03:13;19.00;99.90
15556;DHT22;7879;48.660;9.116;2022-09-03T17:06:11;19.10;99.90
15556;DHT22;7879;48.660;9.116;2022-09-03T17:12:56;19.10;99.90
15556;DHT22;7879;48.660;9.116;2022-09-03T17:19:08;19.10;99.90
15556;DHT22;7879;48.660;9.116;2022-09-03T17:22:04;19.10;99.90
15556;DHT22;7879;48.660;9.116;2022-09-03T17:24:43;19.10;99.90
15556;DHT22;7879;48.660;9.116;2022-09-03T17:30:08;19.00;99.90
15556;DHT22;7879;48.660;9.116;2022-09-03T17:33:00;19.00;99.90
15556;DHT22;7879;48.660;9.116;2022-09-03T17:38:46;18.90;99.90
15556;DHT22;7879;48.660;9.116;2022-09-03T17:41:25;18.80;99.90
15556;DHT22;7879;48.660;9.116;2022-09-03T17:49:51;18.60;99.90
15556;DHT22;7879;48.660;9.116;2022-09-03T17:54:55;18.60;99.90
15556;DHT22;7879;48.660;9.116;2022-09-03T17:57:37;18.50;99.90
15556;DHT22;7879;48.660;9.116;2022-09-03T18:00:08;18.50;99.90
15556;DHT22;7879;48.660;9.116;2022-09-03T18:02:42;18.40;99.90
15556;DHT22;7879;48.660;9.116;2022-09-03T18:16:08;18.10;99.90
15556;DHT22;7879;48.660;9.116;2022-09-03T18:18:42;18.10;99.90
15556;DHT22;7879;48.660;9.116;2022-09-03T18:21:16;17.90;99.90
15556;DHT22;7879;48.660;9.116;2022-09-03T18:24:16;17.90;99.90
15556;DHT22;7879;48.660;9.116;2022-09-03T18:27:28;17.80;99.90
15556;DHT22;7879;48.660;9.116;2022-09-03T18:30:16;17.90;99.90
15556;DHT22;7879;48.660;9.116;2022-09-03T18:33:02;17.80;99.90
15556;DHT22;7879;48.660;9.116;2022-09-03T18:35:47;17.70;99.90
15556;DHT22;7879;48.660;9.116;2022-09-03T18:38:35;17.70;99.90
15556;DHT22;7879;48.660;9.116;2022-09-03T18:48:03;17.50;99.90
15556;DHT22;7879;48.660;9.116;2022-09-03T18:54:01;17.50;99.90
15556;DHT22;7879;48.660;9.116;2022-09-03T18:56:50;17.50;99.90
15556;DHT22;7879;48.660;9.116;2022-09-03T19:03:08;17.40;99.90
15556;DHT22;7879;48.660;9.116;2022-09-03T19:06:17;17.30;99.90
15556;DHT22;7879;48.660;9.116;2022-09-03T19:09:36;17.20;99.90
15556;DHT22;7879;48.660;9.116;2022-09-03T19:15:33;17.10;99.90
15556;DHT22;7879;48.660;9.116;2022-09-03T19:18:35;17.10;99.90
15556;DHT22;7879;48.660;9.116;2022-09-03T19:21:43;17.10;99.90
15556;DHT22;7879;48.660;9.116;2022-09-03T19:24:31;17.10;99.90
15556;DHT22;7879;48.660;9.116;2022-09-03T19:30:43;16.90;99.90
15556;DHT22;7879;48.660;9.116;2022-09-03T19:39:53;16.70;99.90
15556;DHT22;7879;48.660;9.116;2022-09-03T19:55:19;16.60;99.90
15556;DHT22;7879;48.660;9.116;2022-09-03T19:58:06;16.50;99.90
15556;DHT22;7879;48.660;9.116;2022-09-03T20:01:10;16.50;99.90
15556;DHT22;7879;48.660;9.116;2022-09-03T20:03:59;16.40;99.90
15556;DHT22;7879;48.660;9.116;2022-09-03T20:06:48;16.40;99.90
15556;DHT22;7879;48.660;9.116;2022-09-03T20:09:38;16.30;99.90
15556;DHT22;7879;48.660;9.116;2022-09-03T20:12:32;16.30;99.90
15556;DHT22;7879;48.660;9.116;2022-09-03T20:15:03;16.20;99.90
15556;DHT22;7879;48.660;9.116;2022-09-03T20:20:16;16.20;99.90
15556;DHT22;7879;48.660;9.116;2022-09-03T20:23:06;16.10;99.90
15556;DHT22;7879;48.660;9.116;2022-09-03T20:28:33;16.10;99.90
15556;DHT22;7879;48.660;9.116;2022-09-03T20:36:54;15.90;99.90
15556;DHT22;7879;48.660;9.116;2022-09-03T20:42:10;15.80;99.90
15556;DHT22;7879;48.660;9.116;2022-09-03T20:49:56;15.80;99.90
15556;DHT22;7879;48.660;9.116;2022-09-03T20:52:35;15.80;99.90
15556;DHT22;7879;48.660;9.116;2022-09-03T21:00:11;15.90;99.90
15556;DHT22;7879;48.660;9.116;2022-09-03T21:03:06;15.90;99.90
15556;DHT22;7879;48.660;9.116;2022-09-03T21:06:15;16.10;99.90
15556;DHT22;7879;48.660;9.116;2022-09-03T21:11:31;15.90;99.90
15556;DHT22;7879;48.660;9.116;2022-09-03T21:25:30;15.90;99.90
15556;DHT22;7879;48.660;9.116;2022-09-03T21:28:14;15.90;99.90
15556;DHT22;7879;48.660;9.116;2022-09-03T21:30:46;15.90;99.90
15556;DHT22;7879;48.660;9.116;2022-09-03T21:33:22;15.90;99.90
15556;DHT22;7879;48.660;9.116;2022-09-03T21:36:14;16.00;99.90
15556;DHT22;7879;48.660;9.116;2022-09-03T21:38:46;15.90;99.90
15556;DHT22;7879;48.660;9.116;2022-09-03T21:41:20;15.90;99.90
15556;DHT22;7879;48.660;9.116;2022-09-03T21:44:01;15.90;99.90
15556;DHT22;7879;48.660;9.116;2022-09-03T21:46:36;15.80;99.90
15556;DHT22;7879;48.660;9.116;2022-09-03T21:49:08;15.80;99.90
15556;DHT22;7879;48.660;9.116;2022-09-03T21:52:22;15.80;99.90
15556;DHT22;7879;48.660;9.116;2022-09-03T21:54:52;15.80;99.90
15556;DHT22;7879;48.660;9.116;2022-09-03T22:00:42;15.70;99.90
15556;DHT22;7879;48.660;9.116;2022-09-03T22:03:10;15.70;99.90
15556;DHT22;7879;48.660;9.116;2022-09-03T22:14:16;15.60;99.90
15556;DHT22;7879;48.660;9.116;2022-09-03T22:16:54;15.60;99.90
15556;DHT22;7879;48.660;9.116;2022-09-03T22:19:24;15.60;99.90
15556;DHT22;7879;48.660;9.116;2022-09-03T22:24:32;15.60;99.90
15556;DHT22;7879;48.660;9.116;2022-09-03T22:27:23;15.60;99.90
15556;DHT22;7879;48.660;9.116;2022-09-03T22:30:03;15.60;99.90
15556;DHT22;7879;48.660;9.116;2022-09-03T22:35:40;15.60;99.90
15556;DHT22;7879;48.660;9.116;2022-09-03T22:43:41;15.50;99.90
15556;DHT22;7879;48.660;9.116;2022-09-03T22:46:19;15.40;99.90
15556;DHT22;7879;48.660;9.116;2022-09-03T22:49:00;15.40;99.90
15556;DHT22;7879;48.660;9.116;2022-09-03T22:52:03;15.40;99.90
15556;DHT22;7879;48.660;9.116;2022-09-03T22:55:15;15.40;99.90
15556;DHT22;7879;48.660;9.116;2022-09-03T23:00:44;15.30;99.90
15556;DHT22;7879;48.660;9.116;2022-09-03T23:03:36;15.30;99.90
15556;DHT22;7879;48.660;9.116;2022-09-03T23:06:09;15.30;99.90
15556;DHT22;7879;48.660;9.116;2022-09-03T23:08:51;15.20;99.90
15556;DHT22;7879;48.660;9.116;2022-09-03T23:11:31;15.20;99.90
15556;DHT22;7879;48.660;9.116;2022-09-03T23:14:03;15.20;99.90
15556;DHT22;7879;48.660;9.116;2022-09-03T23:16:48;15.10;99.90